Maldives Meteorological Service

SYNOP

Station Code SYNOP
43555
AAXX 22124 43555 12465 72707 10314 20261 30078 40080 60002 82238 333 10324 59011 82818 87277=
43533
AAXX 22124 43533 12460 63404 10316 20266 30072 40074 69902 81242 333 10334 59016 81818 85077=
43577
AAXX 22124 43577 11459 79902 10250 20243 30092 40094 60172 79198 8492/ 333 10326 59006 82817 82918 87461=
43588
AAXX 22124 43588 11459 72512 10288 20257 30092 40093 69902 70382 84938 333 10314 59003 83817 81918 87276=
43599
AAXX 22124 43599 11460 72723 10287 20254 30095 40097 60022 70282 8335/ 333 10306 58000 82817 81918 87362 =
Last Updated : 2019-05-22 17:04:43